Main page
METAR-TAF:

METAR-TAF

Airports :

Béziers Cap d'Agde Airport

Béziers, France

latitude: 43-19N, longitude: 003-21E, elevation: 17 m

Current weather observation

The report was made 38 minutes ago, at 18:30 UTC
Wind 10 kt from the West/Northwest
Temperature 11°C
Humidity 58%
Pressure 1019 hPa
Visibility 10 km or more
no clouds below 1500 m and no cumulonimbus

METAR: LFMU 281830Z AUTO 30010KT CAVOK 11/03 Q1019 NOSIG

Time: 20:08 (19:08 UTC)

Forecast

The report was made 5 hours and 8 minutes ago, at 14:00 UTC
Forecast valid from 28 at 15 UTC to 29 at 15 UTC
Wind 20 kt from the Northwest with gusts up to 30 kt
Visibility 10 km or more
no clouds below 1500 m and no cumulonimbus
Becoming
from 28 at 18 UTC to 28 at 20 UTC
Wind 10 kt from the West/Northwest

TAF: LFMU 281400Z 2815/2915 32020G30KT CAVOK BECMG 2818/2820 30010KT

Weather observations and forecasts of more than 4000 airports (METAR and TAF reports).

The available stations are represented by yellow and red dots on the map.

Hover mouse over dot to see the name of the station.

Then click to see weather observations and forecasts.

To change the map : click on the green buttons with a black cross to zoom in, on the green button with a dash to zoom out, or on the green arrows for adjacent maps.


METAR-TAF: